JST6AN RJGG-ROAH
Flight info
| Callsign | JST6AN |
|---|---|
| Flight time | 2h 13m |
| Altitude | 34000 |
| Route | DCT ESPAN DCT KEC Y12 LAXEL Y52 TONAR Y525 IHEYA IHEYAS |
| Aircraft | A320/M-SDE3FGHIRWY/LB1 |
Departure
| Time | 2026-04-25 08:53 |
|---|---|
| Airport | Chubu Centrair International Airport (RJGG) |
Arrival
| Time | 2026-04-25 11:06 |
|---|---|
| Airport | Naha International Airport (ROAH) |
| Time | Latitude | Longitude | Altitude | Speed | Heading |
|---|---|---|---|---|---|
| 2026-04-25 08:24 | 34.85920 | 136.81140 | 28 ft | 0 kts | 168° |
| 2026-04-25 08:45 | 34.85934 | 136.81136 | 28 ft | 4 kts | 170° |
| 2026-04-25 08:45 | 34.85961 | 136.81131 | 28 ft | 4 kts | 174° |
| 2026-04-25 08:45 | 34.85987 | 136.81130 | 28 ft | 4 kts | 184° |
| 2026-04-25 08:45 | 34.86013 | 136.81136 | 28 ft | 4 kts | 214° |
| 2026-04-25 08:46 | 34.86024 | 136.81151 | 28 ft | 1 kts | 253° |
| 2026-04-25 08:46 | 34.86025 | 136.81154 | 28 ft | 0 kts | 253° |
| 2026-04-25 08:48 | 34.86024 | 136.81150 | 28 ft | 2 kts | 253° |
| 2026-04-25 08:48 | 34.86014 | 136.81108 | 28 ft | 7 kts | 257° |
| 2026-04-25 08:48 | 34.86002 | 136.81035 | 28 ft | 11 kts | 259° |
| 2026-04-25 08:49 | 34.85986 | 136.80933 | 28 ft | 14 kts | 259° |
| 2026-04-25 08:49 | 34.86033 | 136.80845 | 28 ft | 16 kts | 348° |
| 2026-04-25 08:49 | 34.86151 | 136.80818 | 28 ft | 19 kts | 349° |
| 2026-04-25 08:49 | 34.86285 | 136.80787 | 28 ft | 21 kts | 349° |
| 2026-04-25 08:50 | 34.86434 | 136.80752 | 28 ft | 23 kts | 349° |
| 2026-04-25 08:50 | 34.86595 | 136.80712 | 28 ft | 24 kts | 349° |
| 2026-04-25 08:50 | 34.86767 | 136.80670 | 28 ft | 26 kts | 348° |
| 2026-04-25 08:50 | 34.86948 | 136.80626 | 28 ft | 27 kts | 348° |
| 2026-04-25 08:51 | 34.87078 | 136.80594 | 28 ft | 13 kts | 349° |
| 2026-04-25 08:51 | 34.87178 | 136.80571 | 28 ft | 16 kts | 349° |
| 2026-04-25 08:51 | 34.87296 | 136.80543 | 28 ft | 19 kts | 349° |
| 2026-04-25 08:51 | 34.87415 | 136.80482 | 28 ft | 20 kts | 297° |
| 2026-04-25 08:52 | 34.87402 | 136.80333 | 27 ft | 18 kts | 258° |
| 2026-04-25 08:52 | 34.87357 | 136.80184 | 27 ft | 20 kts | 222° |
| 2026-04-25 08:52 | 34.87249 | 136.80200 | 27 ft | 18 kts | 167° |
| 2026-04-25 08:52 | 34.86904 | 136.80282 | 27 ft | 83 kts | 169° |
| 2026-04-25 08:53 | 34.86173 | 136.80452 | 27 ft | 133 kts | 168° |
| 2026-04-25 08:53 | 34.85127 | 136.80707 | 52 ft | 170 kts | 169° |
| 2026-04-25 08:53 | 34.83976 | 136.80914 | 608 ft | 169 kts | 181° |
| 2026-04-25 08:53 | 34.82804 | 136.80643 | 1150 ft | 173 kts | 197° |
| 2026-04-25 08:54 | 34.81651 | 136.80166 | 1750 ft | 176 kts | 196° |
| 2026-04-25 08:54 | 34.80470 | 136.79684 | 2144 ft | 188 kts | 195° |
| 2026-04-25 08:54 | 34.79156 | 136.79160 | 2495 ft | 203 kts | 194° |
| 2026-04-25 08:54 | 34.77756 | 136.78618 | 2843 ft | 221 kts | 193° |
| 2026-04-25 08:55 | 34.76241 | 136.78035 | 3246 ft | 241 kts | 194° |
| 2026-04-25 08:55 | 34.74562 | 136.77398 | 3818 ft | 255 kts | 194° |
| 2026-04-25 08:55 | 34.72855 | 136.76774 | 4552 ft | 263 kts | 194° |
| 2026-04-25 08:55 | 34.71079 | 136.76132 | 5322 ft | 270 kts | 194° |
| 2026-04-25 08:56 | 34.69265 | 136.75467 | 6104 ft | 275 kts | 196° |
| 2026-04-25 08:56 | 34.67419 | 136.74784 | 6860 ft | 281 kts | 196° |
| 2026-04-25 08:56 | 34.65526 | 136.74087 | 7593 ft | 285 kts | 196° |
| 2026-04-25 08:56 | 34.63617 | 136.73383 | 8370 ft | 288 kts | 195° |
| 2026-04-25 08:57 | 34.61682 | 136.72670 | 9133 ft | 292 kts | 195° |
| 2026-04-25 08:57 | 34.59725 | 136.71948 | 9915 ft | 296 kts | 195° |
| 2026-04-25 08:57 | 34.57721 | 136.71207 | 10357 ft | 311 kts | 195° |
| 2026-04-25 08:57 | 34.55567 | 136.70440 | 10508 ft | 334 kts | 194° |
| 2026-04-25 08:58 | 34.53255 | 136.69704 | 10783 ft | 350 kts | 194° |
| 2026-04-25 08:58 | 34.50883 | 136.68946 | 11403 ft | 354 kts | 195° |
| 2026-04-25 08:58 | 34.48495 | 136.68179 | 12107 ft | 356 kts | 196° |
| 2026-04-25 08:58 | 34.46097 | 136.67405 | 12806 ft | 358 kts | 197° |
| 2026-04-25 08:59 | 34.43678 | 136.66620 | 13506 ft | 361 kts | 198° |
| 2026-04-25 08:59 | 34.41249 | 136.65829 | 14181 ft | 363 kts | 198° |
| 2026-04-25 08:59 | 34.38795 | 136.65037 | 14823 ft | 366 kts | 198° |
| 2026-04-25 08:59 | 34.36300 | 136.64238 | 15488 ft | 366 kts | 199° |
| 2026-04-25 09:00 | 34.33843 | 136.63446 | 16150 ft | 366 kts | 199° |
| 2026-04-25 09:00 | 34.31409 | 136.62663 | 16801 ft | 366 kts | 199° |
| 2026-04-25 09:00 | 34.28965 | 136.61881 | 17431 ft | 367 kts | 199° |
| 2026-04-25 09:00 | 34.26507 | 136.61087 | 18078 ft | 368 kts | 199° |
| 2026-04-25 09:01 | 34.24036 | 136.60293 | 18692 ft | 368 kts | 199° |
| 2026-04-25 09:01 | 34.21556 | 136.59493 | 19230 ft | 369 kts | 201° |
| 2026-04-25 09:01 | 34.19193 | 136.58383 | 19746 ft | 365 kts | 212° |
| 2026-04-25 09:01 | 34.17063 | 136.56743 | 20287 ft | 361 kts | 223° |
| 2026-04-25 09:02 | 34.15175 | 136.54756 | 20853 ft | 361 kts | 226° |
| 2026-04-25 09:02 | 34.13302 | 136.52708 | 21409 ft | 362 kts | 226° |
| 2026-04-25 09:02 | 34.11421 | 136.50667 | 21951 ft | 364 kts | 226° |
| 2026-04-25 09:02 | 34.09542 | 136.48640 | 22460 ft | 366 kts | 226° |
| 2026-04-25 09:03 | 34.07654 | 136.46601 | 22975 ft | 367 kts | 226° |
| 2026-04-25 09:03 | 34.05769 | 136.44572 | 23505 ft | 368 kts | 226° |
| 2026-04-25 09:03 | 34.03862 | 136.42518 | 23978 ft | 370 kts | 226° |
| 2026-04-25 09:03 | 34.01949 | 136.40457 | 24436 ft | 371 kts | 227° |
| 2026-04-25 09:04 | 34.00007 | 136.38355 | 24919 ft | 371 kts | 227° |
| 2026-04-25 09:04 | 33.98085 | 136.36289 | 25410 ft | 370 kts | 226° |
| 2026-04-25 09:04 | 33.96181 | 136.34254 | 25893 ft | 370 kts | 227° |
| 2026-04-25 09:04 | 33.94263 | 136.32192 | 26389 ft | 370 kts | 227° |
| 2026-04-25 09:05 | 33.92352 | 136.30144 | 26879 ft | 369 kts | 227° |
| 2026-04-25 09:05 | 33.90409 | 136.28054 | 27374 ft | 369 kts | 227° |
| 2026-04-25 09:05 | 33.88520 | 136.26020 | 27844 ft | 369 kts | 227° |
| 2026-04-25 09:05 | 33.86600 | 136.23971 | 28363 ft | 367 kts | 227° |
| 2026-04-25 09:06 | 33.84704 | 136.21945 | 29046 ft | 362 kts | 227° |
| 2026-04-25 09:06 | 33.82844 | 136.19946 | 29762 ft | 356 kts | 227° |
| 2026-04-25 09:06 | 33.81009 | 136.17979 | 30442 ft | 350 kts | 227° |
| 2026-04-25 09:06 | 33.79201 | 136.16044 | 31005 ft | 346 kts | 227° |
| 2026-04-25 09:07 | 33.77410 | 136.14131 | 31509 ft | 343 kts | 228° |
| 2026-04-25 09:07 | 33.75639 | 136.12241 | 31991 ft | 341 kts | 228° |
| 2026-04-25 09:07 | 33.73875 | 136.10364 | 32447 ft | 338 kts | 228° |
| 2026-04-25 09:07 | 33.72120 | 136.08495 | 32861 ft | 337 kts | 229° |
| 2026-04-25 09:08 | 33.70368 | 136.06627 | 33261 ft | 337 kts | 229° |
| 2026-04-25 09:08 | 33.68626 | 136.04773 | 33684 ft | 336 kts | 229° |
| 2026-04-25 09:08 | 33.66880 | 136.02917 | 34094 ft | 336 kts | 230° |
| 2026-04-25 09:09 | 33.63318 | 135.99115 | 34202 ft | 348 kts | 230° |
| 2026-04-25 09:09 | 33.59683 | 135.95235 | 34197 ft | 350 kts | 229° |
| 2026-04-25 09:10 | 33.56038 | 135.91378 | 34194 ft | 351 kts | 230° |
| 2026-04-25 09:10 | 33.52407 | 135.87531 | 34195 ft | 351 kts | 229° |
| 2026-04-25 09:11 | 33.46920 | 135.81728 | 34189 ft | 351 kts | 229° |
| 2026-04-25 09:11 | 33.42765 | 135.78461 | 34191 ft | 373 kts | 213° |
| 2026-04-25 09:12 | 33.37922 | 135.76182 | 34159 ft | 374 kts | 213° |
| 2026-04-25 09:12 | 33.33080 | 135.73879 | 34168 ft | 375 kts | 214° |
| 2026-04-25 09:13 | 33.29042 | 135.71959 | 34174 ft | 375 kts | 213° |
| 2026-04-25 09:13 | 33.23399 | 135.69283 | 34174 ft | 376 kts | 213° |
| 2026-04-25 09:14 | 33.18813 | 135.67112 | 34179 ft | 376 kts | 214° |
| 2026-04-25 09:14 | 33.14743 | 135.65181 | 34164 ft | 376 kts | 214° |
| 2026-04-25 09:15 | 33.09881 | 135.62876 | 34163 ft | 376 kts | 214° |
| 2026-04-25 09:15 | 33.05010 | 135.60579 | 34168 ft | 377 kts | 213° |
| 2026-04-25 09:16 | 33.00134 | 135.58282 | 34164 ft | 377 kts | 213° |
| 2026-04-25 09:16 | 32.95282 | 135.55991 | 34165 ft | 377 kts | 213° |
| 2026-04-25 09:17 | 32.88040 | 135.52577 | 34139 ft | 376 kts | 213° |
| 2026-04-25 09:18 | 32.83160 | 135.50280 | 34149 ft | 376 kts | 213° |
| 2026-04-25 09:18 | 32.78287 | 135.48000 | 34153 ft | 376 kts | 213° |
| 2026-04-25 09:19 | 32.73430 | 135.45718 | 34159 ft | 376 kts | 213° |
| 2026-04-25 09:19 | 32.68563 | 135.43444 | 34164 ft | 376 kts | 213° |
| 2026-04-25 09:20 | 32.63695 | 135.41161 | 34149 ft | 376 kts | 213° |
| 2026-04-25 09:20 | 32.58826 | 135.38884 | 34148 ft | 376 kts | 213° |
| 2026-04-25 09:21 | 32.53971 | 135.36623 | 34142 ft | 376 kts | 213° |
| 2026-04-25 09:21 | 32.49139 | 135.34376 | 34148 ft | 376 kts | 213° |
| 2026-04-25 09:22 | 32.44296 | 135.32117 | 34149 ft | 375 kts | 213° |
| 2026-04-25 09:22 | 32.39470 | 135.29865 | 34107 ft | 375 kts | 212° |
| 2026-04-25 09:23 | 32.34679 | 135.27650 | 34117 ft | 375 kts | 213° |
| 2026-04-25 09:23 | 32.29841 | 135.25398 | 34124 ft | 375 kts | 213° |
| 2026-04-25 09:24 | 32.24939 | 135.23138 | 34132 ft | 376 kts | 212° |
| 2026-04-25 09:24 | 32.20091 | 135.20887 | 34132 ft | 376 kts | 213° |
| 2026-04-25 09:25 | 32.15237 | 135.18647 | 34110 ft | 375 kts | 212° |
| 2026-04-25 09:25 | 32.10521 | 135.16169 | 34109 ft | 363 kts | 222° |
| 2026-04-25 09:26 | 32.06908 | 135.12259 | 34111 ft | 348 kts | 237° |
| 2026-04-25 09:26 | 32.03961 | 135.07732 | 34120 ft | 348 kts | 237° |
| 2026-04-25 09:27 | 32.01004 | 135.03202 | 34126 ft | 348 kts | 237° |
| 2026-04-25 09:27 | 31.98061 | 134.98691 | 34137 ft | 348 kts | 237° |
| 2026-04-25 09:28 | 31.95112 | 134.94182 | 34132 ft | 348 kts | 237° |
| 2026-04-25 09:28 | 31.92185 | 134.89703 | 34102 ft | 348 kts | 237° |
| 2026-04-25 09:29 | 31.89226 | 134.85199 | 34099 ft | 349 kts | 237° |
| 2026-04-25 09:29 | 31.86261 | 134.80693 | 34103 ft | 349 kts | 237° |
| 2026-04-25 09:30 | 31.83288 | 134.76171 | 34115 ft | 349 kts | 237° |
| 2026-04-25 09:30 | 31.80311 | 134.71655 | 34122 ft | 349 kts | 237° |
| 2026-04-25 09:31 | 31.77338 | 134.67135 | 34121 ft | 350 kts | 237° |
| 2026-04-25 09:31 | 31.74360 | 134.62615 | 34119 ft | 349 kts | 237° |
| 2026-04-25 09:32 | 31.71388 | 134.58120 | 34136 ft | 349 kts | 237° |
| 2026-04-25 09:32 | 31.68419 | 134.53635 | 34103 ft | 348 kts | 236° |
| 2026-04-25 09:33 | 31.65469 | 134.49176 | 34104 ft | 349 kts | 236° |
| 2026-04-25 09:33 | 31.62486 | 134.44662 | 34101 ft | 349 kts | 236° |
| 2026-04-25 09:34 | 31.59517 | 134.40189 | 34116 ft | 349 kts | 236° |
| 2026-04-25 09:34 | 31.56562 | 134.35754 | 34085 ft | 348 kts | 236° |
| 2026-04-25 09:35 | 31.53602 | 134.31298 | 34086 ft | 348 kts | 236° |
| 2026-04-25 09:35 | 31.50635 | 134.26850 | 34094 ft | 349 kts | 236° |
| 2026-04-25 09:36 | 31.47644 | 134.22342 | 34122 ft | 348 kts | 236° |
| 2026-04-25 09:36 | 31.44679 | 134.17931 | 34091 ft | 348 kts | 236° |
| 2026-04-25 09:37 | 31.41697 | 134.13457 | 34098 ft | 347 kts | 236° |
| 2026-04-25 09:37 | 31.38728 | 134.09003 | 34096 ft | 347 kts | 236° |
| 2026-04-25 09:38 | 31.35752 | 134.04566 | 34099 ft | 347 kts | 236° |
| 2026-04-25 09:38 | 31.32804 | 134.00194 | 34099 ft | 347 kts | 236° |
| 2026-04-25 09:39 | 31.29867 | 133.95809 | 34102 ft | 347 kts | 236° |
| 2026-04-25 09:39 | 31.26890 | 133.91372 | 34103 ft | 347 kts | 236° |
| 2026-04-25 09:40 | 31.22404 | 133.84707 | 34104 ft | 346 kts | 236° |
| 2026-04-25 09:40 | 31.19428 | 133.80278 | 34091 ft | 346 kts | 235° |
| 2026-04-25 09:41 | 31.16457 | 133.75891 | 34095 ft | 347 kts | 235° |
| 2026-04-25 09:41 | 31.13483 | 133.71483 | 34096 ft | 346 kts | 235° |
| 2026-04-25 09:42 | 31.10504 | 133.67065 | 34094 ft | 346 kts | 235° |
| 2026-04-25 09:42 | 31.07553 | 133.62692 | 34084 ft | 347 kts | 234° |
| 2026-04-25 09:43 | 31.04568 | 133.58313 | 34090 ft | 347 kts | 235° |
| 2026-04-25 09:43 | 31.01583 | 133.53897 | 34094 ft | 347 kts | 235° |
| 2026-04-25 09:44 | 30.98594 | 133.49506 | 34096 ft | 347 kts | 235° |
| 2026-04-25 09:44 | 30.95610 | 133.45109 | 34064 ft | 347 kts | 234° |
| 2026-04-25 09:45 | 30.92618 | 133.40713 | 34090 ft | 347 kts | 234° |
| 2026-04-25 09:45 | 30.89624 | 133.36328 | 34093 ft | 347 kts | 234° |
| 2026-04-25 09:46 | 30.86642 | 133.31956 | 34097 ft | 346 kts | 234° |
| 2026-04-25 09:46 | 30.83649 | 133.27557 | 34070 ft | 346 kts | 234° |
| 2026-04-25 09:47 | 30.80652 | 133.23172 | 34079 ft | 346 kts | 234° |
| 2026-04-25 09:47 | 30.77652 | 133.18785 | 34104 ft | 346 kts | 234° |
| 2026-04-25 09:48 | 30.74680 | 133.14441 | 34099 ft | 345 kts | 234° |
| 2026-04-25 09:48 | 30.71704 | 133.10090 | 34103 ft | 345 kts | 233° |
| 2026-04-25 09:49 | 30.68717 | 133.05748 | 34080 ft | 345 kts | 233° |
| 2026-04-25 09:49 | 30.65730 | 133.01398 | 34100 ft | 345 kts | 233° |
| 2026-04-25 09:50 | 30.62732 | 132.97060 | 34098 ft | 344 kts | 233° |
| 2026-04-25 09:50 | 30.59755 | 132.92736 | 34094 ft | 344 kts | 233° |
| 2026-04-25 09:51 | 30.57283 | 132.89137 | 34094 ft | 344 kts | 233° |
| 2026-04-25 09:51 | 30.53821 | 132.84118 | 34089 ft | 344 kts | 233° |
| 2026-04-25 09:52 | 30.51334 | 132.80524 | 34088 ft | 344 kts | 233° |
| 2026-04-25 09:52 | 30.48363 | 132.76218 | 34089 ft | 343 kts | 233° |
| 2026-04-25 09:53 | 30.45365 | 132.71905 | 34087 ft | 343 kts | 233° |
| 2026-04-25 09:53 | 30.42371 | 132.67593 | 34056 ft | 344 kts | 233° |
| 2026-04-25 09:54 | 30.39382 | 132.63277 | 34058 ft | 344 kts | 233° |
| 2026-04-25 09:54 | 30.36385 | 132.58943 | 34086 ft | 345 kts | 233° |
| 2026-04-25 09:55 | 30.33372 | 132.54620 | 34086 ft | 345 kts | 233° |
| 2026-04-25 09:55 | 30.30368 | 132.50303 | 34060 ft | 345 kts | 233° |
| 2026-04-25 09:56 | 30.27353 | 132.45984 | 34063 ft | 345 kts | 233° |
| 2026-04-25 09:56 | 30.24341 | 132.41651 | 34063 ft | 346 kts | 233° |
| 2026-04-25 09:57 | 30.21323 | 132.37327 | 34095 ft | 345 kts | 233° |
| 2026-04-25 09:57 | 30.18304 | 132.33016 | 34094 ft | 345 kts | 233° |
| 2026-04-25 09:58 | 30.15323 | 132.28752 | 34052 ft | 345 kts | 232° |
| 2026-04-25 09:58 | 30.12296 | 132.24436 | 34055 ft | 346 kts | 232° |
| 2026-04-25 09:59 | 30.09263 | 132.20116 | 34058 ft | 346 kts | 232° |
| 2026-04-25 09:59 | 30.06234 | 132.15798 | 34087 ft | 346 kts | 232° |
| 2026-04-25 10:00 | 30.03188 | 132.11459 | 34054 ft | 345 kts | 232° |
| 2026-04-25 10:00 | 30.00177 | 132.07186 | 34051 ft | 346 kts | 232° |
| 2026-04-25 10:01 | 29.97137 | 132.02879 | 34056 ft | 346 kts | 232° |
| 2026-04-25 10:01 | 29.94102 | 131.98563 | 34084 ft | 347 kts | 232° |
| 2026-04-25 10:02 | 29.91060 | 131.94256 | 34087 ft | 346 kts | 232° |
| 2026-04-25 10:02 | 29.88018 | 131.89957 | 34062 ft | 346 kts | 232° |
| 2026-04-25 10:03 | 29.84977 | 131.85651 | 34062 ft | 347 kts | 232° |
| 2026-04-25 10:03 | 29.81926 | 131.81350 | 34062 ft | 347 kts | 232° |
| 2026-04-25 10:04 | 29.78804 | 131.77102 | 34093 ft | 347 kts | 231° |
| 2026-04-25 10:04 | 29.75679 | 131.72864 | 34057 ft | 347 kts | 231° |
| 2026-04-25 10:05 | 29.72548 | 131.68639 | 34062 ft | 347 kts | 231° |
| 2026-04-25 10:05 | 29.69413 | 131.64402 | 34060 ft | 348 kts | 231° |
| 2026-04-25 10:06 | 29.66248 | 131.60137 | 34077 ft | 348 kts | 231° |
| 2026-04-25 10:06 | 29.63102 | 131.55904 | 34094 ft | 348 kts | 231° |
| 2026-04-25 10:07 | 29.59960 | 131.51669 | 34070 ft | 348 kts | 231° |
| 2026-04-25 10:07 | 29.56815 | 131.47427 | 34070 ft | 348 kts | 231° |
| 2026-04-25 10:08 | 29.53664 | 131.43199 | 34071 ft | 349 kts | 231° |
| 2026-04-25 10:08 | 29.50514 | 131.38966 | 34074 ft | 348 kts | 231° |
| 2026-04-25 10:09 | 29.47360 | 131.34738 | 34059 ft | 349 kts | 231° |
| 2026-04-25 10:09 | 29.44208 | 131.30508 | 34063 ft | 349 kts | 231° |
| 2026-04-25 10:10 | 29.41044 | 131.26283 | 34063 ft | 349 kts | 231° |
| 2026-04-25 10:10 | 29.37887 | 131.22058 | 34064 ft | 349 kts | 231° |
| 2026-04-25 10:11 | 29.34725 | 131.17831 | 34066 ft | 349 kts | 231° |
| 2026-04-25 10:11 | 29.31557 | 131.13604 | 34040 ft | 350 kts | 231° |
| 2026-04-25 10:12 | 29.28383 | 131.09380 | 34072 ft | 350 kts | 231° |
| 2026-04-25 10:13 | 29.23626 | 131.03048 | 34073 ft | 350 kts | 231° |
| 2026-04-25 10:13 | 29.20451 | 130.98831 | 34071 ft | 349 kts | 231° |
| 2026-04-25 10:14 | 29.17286 | 130.94619 | 34071 ft | 349 kts | 231° |
| 2026-04-25 10:14 | 29.14119 | 130.90405 | 34091 ft | 349 kts | 231° |
| 2026-04-25 10:15 | 29.10948 | 130.86203 | 34087 ft | 349 kts | 231° |
| 2026-04-25 10:15 | 29.07770 | 130.82010 | 34085 ft | 348 kts | 231° |
| 2026-04-25 10:16 | 29.04603 | 130.77832 | 34057 ft | 348 kts | 231° |
| 2026-04-25 10:16 | 29.01441 | 130.73648 | 34052 ft | 348 kts | 231° |
| 2026-04-25 10:17 | 28.98272 | 130.69458 | 34049 ft | 349 kts | 231° |
| 2026-04-25 10:17 | 28.95091 | 130.65262 | 34049 ft | 350 kts | 231° |
| 2026-04-25 10:18 | 28.91904 | 130.61062 | 34052 ft | 350 kts | 231° |
| 2026-04-25 10:18 | 28.88708 | 130.56857 | 34028 ft | 351 kts | 230° |
| 2026-04-25 10:19 | 28.85504 | 130.52647 | 34035 ft | 352 kts | 231° |
| 2026-04-25 10:19 | 28.82296 | 130.48422 | 34042 ft | 352 kts | 230° |
| 2026-04-25 10:20 | 28.79070 | 130.44208 | 34070 ft | 352 kts | 231° |
| 2026-04-25 10:20 | 28.75861 | 130.39995 | 34071 ft | 352 kts | 230° |
| 2026-04-25 10:21 | 28.72649 | 130.35779 | 34042 ft | 352 kts | 230° |
| 2026-04-25 10:21 | 28.69421 | 130.31571 | 34045 ft | 353 kts | 230° |
| 2026-04-25 10:22 | 28.66191 | 130.27343 | 34054 ft | 354 kts | 230° |
| 2026-04-25 10:22 | 28.62955 | 130.23115 | 34082 ft | 354 kts | 230° |
| 2026-04-25 10:23 | 28.59707 | 130.18892 | 34081 ft | 354 kts | 230° |
| 2026-04-25 10:23 | 28.56466 | 130.14673 | 34056 ft | 354 kts | 231° |
| 2026-04-25 10:24 | 28.53225 | 130.10441 | 34057 ft | 355 kts | 230° |
| 2026-04-25 10:24 | 28.49972 | 130.06222 | 34056 ft | 355 kts | 230° |
| 2026-04-25 10:25 | 28.46721 | 130.02002 | 34065 ft | 355 kts | 230° |
| 2026-04-25 10:25 | 28.43466 | 129.97784 | 34037 ft | 355 kts | 230° |
| 2026-04-25 10:26 | 28.40212 | 129.93569 | 34036 ft | 355 kts | 230° |
| 2026-04-25 10:26 | 28.36954 | 129.89343 | 34032 ft | 356 kts | 230° |
| 2026-04-25 10:27 | 28.33694 | 129.85121 | 34041 ft | 356 kts | 230° |
| 2026-04-25 10:27 | 28.30419 | 129.80900 | 34038 ft | 356 kts | 230° |
| 2026-04-25 10:28 | 28.27146 | 129.76681 | 34034 ft | 356 kts | 230° |
| 2026-04-25 10:28 | 28.23877 | 129.72469 | 34040 ft | 356 kts | 230° |
| 2026-04-25 10:29 | 28.20607 | 129.68254 | 34048 ft | 356 kts | 230° |
| 2026-04-25 10:29 | 28.17335 | 129.64039 | 34059 ft | 356 kts | 230° |
| 2026-04-25 10:30 | 28.14060 | 129.59825 | 34062 ft | 356 kts | 230° |
| 2026-04-25 10:30 | 28.10781 | 129.55616 | 34058 ft | 356 kts | 230° |
| 2026-04-25 10:31 | 28.07499 | 129.51411 | 34071 ft | 356 kts | 230° |
| 2026-04-25 10:31 | 28.04222 | 129.47208 | 34070 ft | 356 kts | 230° |
| 2026-04-25 10:32 | 28.01471 | 129.43687 | 34071 ft | 356 kts | 230° |
| 2026-04-25 10:32 | 27.98189 | 129.39485 | 34071 ft | 356 kts | 230° |
| 2026-04-25 10:33 | 27.94899 | 129.35286 | 34047 ft | 357 kts | 230° |
| 2026-04-25 10:33 | 27.91606 | 129.31077 | 34074 ft | 357 kts | 230° |
| 2026-04-25 10:34 | 27.88304 | 129.26873 | 34077 ft | 358 kts | 230° |
| 2026-04-25 10:34 | 27.85004 | 129.22666 | 34078 ft | 357 kts | 230° |
| 2026-04-25 10:35 | 27.81705 | 129.18464 | 34076 ft | 357 kts | 230° |
| 2026-04-25 10:35 | 27.78403 | 129.14262 | 34039 ft | 358 kts | 230° |
| 2026-04-25 10:36 | 27.75085 | 129.10052 | 34066 ft | 359 kts | 230° |
| 2026-04-25 10:36 | 27.71788 | 129.05864 | 34072 ft | 359 kts | 230° |
| 2026-04-25 10:37 | 27.68442 | 129.01629 | 34075 ft | 359 kts | 230° |
| 2026-04-25 10:37 | 27.65113 | 128.97424 | 34080 ft | 359 kts | 230° |
| 2026-04-25 10:38 | 27.61789 | 128.93213 | 34084 ft | 359 kts | 230° |
| 2026-04-25 10:38 | 27.58487 | 128.89038 | 34113 ft | 359 kts | 230° |
| 2026-04-25 10:39 | 27.55162 | 128.84842 | 34109 ft | 359 kts | 230° |
| 2026-04-25 10:39 | 27.51837 | 128.80663 | 34106 ft | 358 kts | 230° |
| 2026-04-25 10:40 | 27.48520 | 128.76477 | 34104 ft | 358 kts | 230° |
| 2026-04-25 10:40 | 27.45201 | 128.72308 | 34069 ft | 358 kts | 230° |
| 2026-04-25 10:41 | 27.42198 | 128.67857 | 34071 ft | 358 kts | 239° |
| 2026-04-25 10:41 | 27.39671 | 128.63020 | 34103 ft | 358 kts | 238° |
| 2026-04-25 10:42 | 27.37135 | 128.58198 | 34091 ft | 360 kts | 238° |
| 2026-04-25 10:42 | 27.35851 | 128.55762 | 33853 ft | 362 kts | 238° |
| 2026-04-25 10:42 | 27.34573 | 128.53324 | 33592 ft | 361 kts | 238° |
| 2026-04-25 10:42 | 27.33293 | 128.50896 | 33337 ft | 360 kts | 238° |
| 2026-04-25 10:43 | 27.32015 | 128.48478 | 33044 ft | 359 kts | 238° |
| 2026-04-25 10:43 | 27.30744 | 128.46065 | 32773 ft | 357 kts | 239° |
| 2026-04-25 10:43 | 27.29482 | 128.43674 | 32340 ft | 353 kts | 239° |
| 2026-04-25 10:43 | 27.28235 | 128.41312 | 31887 ft | 350 kts | 239° |
| 2026-04-25 10:44 | 27.26998 | 128.38973 | 31463 ft | 346 kts | 239° |
| 2026-04-25 10:44 | 27.25774 | 128.36656 | 31038 ft | 343 kts | 239° |
| 2026-04-25 10:44 | 27.24566 | 128.34361 | 30608 ft | 340 kts | 239° |
| 2026-04-25 10:44 | 27.23362 | 128.32091 | 30183 ft | 337 kts | 239° |
| 2026-04-25 10:45 | 27.22164 | 128.29834 | 29700 ft | 335 kts | 239° |
| 2026-04-25 10:45 | 27.20981 | 128.27600 | 29291 ft | 330 kts | 239° |
| 2026-04-25 10:45 | 27.19812 | 128.25397 | 28852 ft | 327 kts | 239° |
| 2026-04-25 10:45 | 27.18764 | 128.23418 | 28466 ft | 325 kts | 239° |
| 2026-04-25 10:46 | 27.17611 | 128.21245 | 28042 ft | 322 kts | 239° |
| 2026-04-25 10:46 | 27.16467 | 128.19091 | 27616 ft | 321 kts | 239° |
| 2026-04-25 10:46 | 27.15324 | 128.16943 | 27192 ft | 320 kts | 239° |
| 2026-04-25 10:46 | 27.14186 | 128.14797 | 26763 ft | 319 kts | 239° |
| 2026-04-25 10:47 | 27.13087 | 128.12724 | 26346 ft | 318 kts | 239° |
| 2026-04-25 10:47 | 27.11949 | 128.10585 | 25918 ft | 317 kts | 239° |
| 2026-04-25 10:47 | 27.10815 | 128.08467 | 25503 ft | 316 kts | 239° |
| 2026-04-25 10:47 | 27.09686 | 128.06350 | 25070 ft | 316 kts | 239° |
| 2026-04-25 10:48 | 27.08565 | 128.04233 | 24653 ft | 315 kts | 240° |
| 2026-04-25 10:48 | 27.07444 | 128.02122 | 24240 ft | 315 kts | 239° |
| 2026-04-25 10:48 | 27.06320 | 128.00016 | 23805 ft | 314 kts | 240° |
| 2026-04-25 10:48 | 27.05197 | 127.97911 | 23326 ft | 314 kts | 240° |
| 2026-04-25 10:49 | 27.04078 | 127.95816 | 22896 ft | 312 kts | 240° |
| 2026-04-25 10:49 | 27.02908 | 127.93782 | 22484 ft | 310 kts | 233° |
| 2026-04-25 10:49 | 27.01347 | 127.92111 | 22047 ft | 312 kts | 219° |
| 2026-04-25 10:49 | 26.99418 | 127.90961 | 21671 ft | 317 kts | 206° |
| 2026-04-25 10:50 | 26.97250 | 127.90420 | 21293 ft | 325 kts | 192° |
| 2026-04-25 10:50 | 26.94968 | 127.90427 | 20884 ft | 329 kts | 186° |
| 2026-04-25 10:50 | 26.92683 | 127.90510 | 20480 ft | 328 kts | 186° |
| 2026-04-25 10:50 | 26.90406 | 127.90585 | 20065 ft | 327 kts | 186° |
| 2026-04-25 10:51 | 26.88135 | 127.90656 | 19670 ft | 326 kts | 186° |
| 2026-04-25 10:51 | 26.85871 | 127.90725 | 19251 ft | 325 kts | 186° |
| 2026-04-25 10:51 | 26.83612 | 127.90796 | 18851 ft | 325 kts | 186° |
| 2026-04-25 10:51 | 26.81353 | 127.90865 | 18447 ft | 324 kts | 186° |
| 2026-04-25 10:52 | 26.79100 | 127.90927 | 17980 ft | 324 kts | 186° |
| 2026-04-25 10:52 | 26.76852 | 127.90996 | 17587 ft | 322 kts | 186° |
| 2026-04-25 10:52 | 26.74619 | 127.91065 | 17204 ft | 320 kts | 186° |
| 2026-04-25 10:52 | 26.72399 | 127.91135 | 16804 ft | 319 kts | 186° |
| 2026-04-25 10:53 | 26.70184 | 127.91203 | 16412 ft | 318 kts | 185° |
| 2026-04-25 10:53 | 26.67972 | 127.91262 | 16013 ft | 319 kts | 185° |
| 2026-04-25 10:53 | 26.65734 | 127.91324 | 15626 ft | 325 kts | 185° |
| 2026-04-25 10:53 | 26.63454 | 127.91387 | 15220 ft | 330 kts | 185° |
| 2026-04-25 10:54 | 26.61147 | 127.91458 | 14815 ft | 334 kts | 184° |
| 2026-04-25 10:54 | 26.59607 | 127.91507 | 14549 ft | 336 kts | 184° |
| 2026-04-25 10:54 | 26.56459 | 127.91599 | 14006 ft | 340 kts | 184° |
| 2026-04-25 10:54 | 26.54091 | 127.91675 | 13555 ft | 339 kts | 185° |
| 2026-04-25 10:55 | 26.51740 | 127.91748 | 13068 ft | 337 kts | 184° |
| 2026-04-25 10:55 | 26.49416 | 127.91822 | 12665 ft | 331 kts | 184° |
| 2026-04-25 10:55 | 26.47132 | 127.91886 | 12278 ft | 326 kts | 184° |
| 2026-04-25 10:55 | 26.44875 | 127.91955 | 11888 ft | 322 kts | 184° |
| 2026-04-25 10:56 | 26.42649 | 127.92019 | 11495 ft | 318 kts | 184° |
| 2026-04-25 10:56 | 26.40457 | 127.92011 | 11134 ft | 311 kts | 190° |
| 2026-04-25 10:56 | 26.38383 | 127.91547 | 10890 ft | 298 kts | 201° |
| 2026-04-25 10:56 | 26.36488 | 127.90688 | 10638 ft | 290 kts | 208° |
| 2026-04-25 10:57 | 26.34688 | 127.89768 | 10463 ft | 280 kts | 208° |
| 2026-04-25 10:57 | 26.32921 | 127.88867 | 10172 ft | 279 kts | 207° |
| 2026-04-25 10:57 | 26.31173 | 127.87979 | 9746 ft | 274 kts | 206° |
| 2026-04-25 10:57 | 26.29449 | 127.87096 | 9265 ft | 271 kts | 207° |
| 2026-04-25 10:58 | 26.27749 | 127.86228 | 8807 ft | 268 kts | 207° |
| 2026-04-25 10:58 | 26.26058 | 127.85367 | 8356 ft | 267 kts | 207° |
| 2026-04-25 10:58 | 26.24385 | 127.84510 | 7916 ft | 263 kts | 207° |
| 2026-04-25 10:58 | 26.22739 | 127.83665 | 7507 ft | 257 kts | 207° |
| 2026-04-25 10:59 | 26.21122 | 127.82843 | 7070 ft | 254 kts | 207° |
| 2026-04-25 10:59 | 26.19531 | 127.82030 | 6667 ft | 250 kts | 207° |
| 2026-04-25 10:59 | 26.17968 | 127.81228 | 6297 ft | 245 kts | 207° |
| 2026-04-25 10:59 | 26.16435 | 127.80444 | 5921 ft | 240 kts | 207° |
| 2026-04-25 11:00 | 26.14940 | 127.79683 | 5551 ft | 233 kts | 207° |
| 2026-04-25 11:00 | 26.13483 | 127.78942 | 5177 ft | 227 kts | 207° |
| 2026-04-25 11:00 | 26.12064 | 127.78222 | 4799 ft | 222 kts | 207° |
| 2026-04-25 11:00 | 26.10681 | 127.77516 | 4411 ft | 216 kts | 207° |
| 2026-04-25 11:01 | 26.09324 | 127.76827 | 4038 ft | 212 kts | 207° |
| 2026-04-25 11:01 | 26.07995 | 127.76149 | 3676 ft | 208 kts | 208° |
| 2026-04-25 11:01 | 26.06812 | 127.75282 | 3353 ft | 199 kts | 224° |
| 2026-04-25 11:01 | 26.05921 | 127.74165 | 3096 ft | 190 kts | 237° |
| 2026-04-25 11:02 | 26.05320 | 127.72894 | 2838 ft | 182 kts | 251° |
| 2026-04-25 11:02 | 26.05008 | 127.71528 | 2594 ft | 184 kts | 264° |
| 2026-04-25 11:02 | 26.04928 | 127.70107 | 2343 ft | 185 kts | 269° |
| 2026-04-25 11:02 | 26.04887 | 127.68679 | 2100 ft | 184 kts | 273° |
| 2026-04-25 11:03 | 26.05213 | 127.67317 | 2021 ft | 184 kts | 301° |
| 2026-04-25 11:03 | 26.06051 | 127.66267 | 2013 ft | 182 kts | 326° |
| 2026-04-25 11:03 | 26.07187 | 127.65662 | 2008 ft | 182 kts | 345° |
| 2026-04-25 11:03 | 26.08411 | 127.65458 | 1883 ft | 172 kts | 356° |
| 2026-04-25 11:04 | 26.09578 | 127.65373 | 1690 ft | 164 kts | 356° |
| 2026-04-25 11:04 | 26.10675 | 127.65288 | 1495 ft | 151 kts | 356° |
| 2026-04-25 11:04 | 26.11691 | 127.65186 | 1295 ft | 143 kts | 353° |
| 2026-04-25 11:04 | 26.12353 | 127.65083 | 1158 ft | 142 kts | 352° |
| 2026-04-25 11:05 | 26.13634 | 127.64889 | 923 ft | 139 kts | 354° |
| 2026-04-25 11:05 | 26.14596 | 127.64826 | 770 ft | 138 kts | 359° |
| 2026-04-25 11:05 | 26.15558 | 127.64789 | 587 ft | 138 kts | 357° |
| 2026-04-25 11:05 | 26.16528 | 127.64729 | 383 ft | 138 kts | 359° |
| 2026-04-25 11:06 | 26.17474 | 127.64689 | 216 ft | 138 kts | 358° |
| 2026-04-25 11:06 | 26.18410 | 127.64641 | 45 ft | 137 kts | 358° |
| 2026-04-25 11:06 | 26.19239 | 127.64604 | 18 ft | 87 kts | 358° |
| 2026-04-25 11:06 | 26.19573 | 127.64588 | 15 ft | 28 kts | 357° |
| 2026-04-25 11:07 | 26.19768 | 127.64610 | 15 ft | 29 kts | 26° |
| 2026-04-25 11:07 | 26.19950 | 127.64718 | 16 ft | 30 kts | 28° |
| 2026-04-25 11:07 | 26.20115 | 127.64771 | 17 ft | 22 kts | 355° |
| 2026-04-25 11:07 | 26.20277 | 127.64759 | 17 ft | 25 kts | 357° |
| 2026-04-25 11:08 | 26.20454 | 127.64751 | 18 ft | 26 kts | 358° |
| 2026-04-25 11:08 | 26.20561 | 127.64744 | 17 ft | 12 kts | 1° |
| 2026-04-25 11:08 | 26.20609 | 127.64771 | 18 ft | 6 kts | 42° |
| 2026-04-25 11:08 | 26.20630 | 127.64811 | 19 ft | 6 kts | 73° |
| 2026-04-25 11:09 | 26.20634 | 127.64869 | 20 ft | 10 kts | 87° |
| 2026-04-25 11:09 | 26.20635 | 127.64952 | 21 ft | 12 kts | 102° |
| 2026-04-25 11:09 | 26.20584 | 127.64988 | 23 ft | 4 kts | 146° |
| 2026-04-25 11:09 | 26.20567 | 127.65002 | 21 ft | 0 kts | 145° |